22N

Jake Arner Memorial Airport

Lehighton, Pennsylvania, USA
METAR K22N 172335Z AUTO 00000KT 10SM BKN041 04/M01 A3025 RMK AO2
Observed Flight Rules
Nov-17 @ 23:35 UTC (20 minutes ago) Visual Flight Rules
Visibility Clouds
10 miles
  • Broken at 4,100' AGL
Temperatures Readings
Current 4°C / 39°F
Dewpoint -1°C / 30°F
Humidity 70%
Altimeter 30.25" Hg
Pressure 1024 hPa
Elevation 163
METAR K22N 172335Z AUTO 00000KT 10SM BKN041 04/M01 A3025 RMK AO2
Observed Flight Rules
Nov-17 @ 23:35 UTC
(20 minutes ago)
VFR
Clouds
  • Broken at 4,100' AGL
Temperature Dewpoint
4°C / 39°F -1°C / 30°F
Humidity Altimeter Pressure
70% 30.25" Hg 1024 hPa